createdAt,value
2023-04-15T00:02:23.448Z,11.10
2023-04-15T00:04:53.288Z,10.90
2023-04-15T00:07:21.040Z,10.90
2023-04-15T00:09:48.876Z,11.00
2023-04-15T00:12:16.554Z,11.00
2023-04-15T00:14:45.197Z,11.10
2023-04-15T00:17:13.419Z,11.10
2023-04-15T00:19:41.845Z,11.20
2023-04-15T00:22:12.690Z,11.20
2023-04-15T00:24:40.910Z,11.10
2023-04-15T00:27:08.710Z,10.90
2023-04-15T00:29:36.433Z,10.70
2023-04-15T00:32:04.159Z,10.60
2023-04-15T00:34:31.837Z,10.80
2023-04-15T00:36:59.927Z,10.70
2023-04-15T00:39:28.324Z,10.70
2023-04-15T00:41:56.488Z,10.70
2023-04-15T00:44:24.368Z,10.60
2023-04-15T00:46:53.223Z,10.60
2023-04-15T00:49:21.301Z,10.60
2023-04-15T00:51:49.228Z,10.50
2023-04-15T00:54:17.624Z,10.50
2023-04-15T00:56:45.719Z,10.50
2023-04-15T00:59:14.757Z,10.50
2023-04-15T01:01:43.296Z,10.40
2023-04-15T01:04:12.399Z,10.30
2023-04-15T01:06:40.389Z,10.40
2023-04-15T01:09:08.515Z,10.40
2023-04-15T01:11:36.523Z,10.40
2023-04-15T01:14:04.897Z,10.50
2023-04-15T01:16:33.073Z,10.40
2023-04-15T01:19:02.359Z,10.40
2023-04-15T01:21:31.708Z,10.40
2023-04-15T01:24:01.085Z,10.30
2023-04-15T01:26:29.502Z,10.40
2023-04-15T01:28:58.070Z,10.30
2023-04-15T01:31:26.349Z,10.20
2023-04-15T01:33:55.049Z,10.00
2023-04-15T01:36:23.255Z,10.00
2023-04-15T01:38:55.898Z,9.80
2023-04-15T01:41:28.374Z,9.70
2023-04-15T01:43:57.129Z,9.70
2023-04-15T01:46:25.433Z,9.60
2023-04-15T01:48:55.011Z,9.70
2023-04-15T01:51:23.629Z,9.70
2023-04-15T01:53:52.619Z,9.70
2023-04-15T01:56:20.495Z,9.80
2023-04-15T01:58:48.654Z,9.80
2023-04-15T02:01:20.030Z,9.70
2023-04-15T02:03:48.387Z,9.60
2023-04-15T02:06:16.500Z,9.70
2023-04-15T02:08:44.290Z,9.70
2023-04-15T02:11:12.172Z,9.60
2023-04-15T02:13:39.983Z,9.60
2023-04-15T02:16:17.774Z,9.60
2023-04-15T02:18:47.105Z,9.60
2023-04-15T02:21:15.329Z,9.50
2023-04-15T02:23:44.209Z,9.40
2023-04-15T02:26:14.502Z,9.30
2023-04-15T02:28:42.296Z,9.50
2023-04-15T02:31:10.145Z,9.40
2023-04-15T02:33:38.035Z,9.40
2023-04-15T02:36:06.571Z,9.20
2023-04-15T02:38:34.448Z,9.00
2023-04-15T02:41:03.119Z,9.10
2023-04-15T02:43:30.859Z,8.90
2023-04-15T02:45:58.664Z,8.80
2023-04-15T02:48:27.328Z,9.00
2023-04-15T02:51:10.858Z,9.10
2023-04-15T02:53:38.634Z,9.30
2023-04-15T02:56:06.909Z,9.40
2023-04-15T02:58:36.095Z,9.50
2023-04-15T03:01:03.947Z,9.60
2023-04-15T03:03:31.853Z,9.70
2023-04-15T03:05:59.643Z,9.80
2023-04-15T03:08:27.627Z,9.80
2023-04-15T03:11:00.996Z,9.80
2023-04-15T03:13:28.886Z,9.80
2023-04-15T03:15:58.546Z,9.90
2023-04-15T03:18:26.567Z,9.90
2023-04-15T03:20:54.398Z,9.90
2023-04-15T03:23:23.726Z,9.90
2023-04-15T03:25:51.645Z,9.90
2023-04-15T03:28:19.507Z,9.90
2023-04-15T03:30:49.218Z,9.90
2023-04-15T03:33:16.986Z,9.90
2023-04-15T03:35:45.068Z,9.80
2023-04-15T03:38:13.002Z,9.80
2023-04-15T03:40:43.942Z,9.80
2023-04-15T03:43:12.397Z,9.80
2023-04-15T03:45:40.164Z,9.90
2023-04-15T03:48:17.158Z,9.90
2023-04-15T03:50:46.574Z,9.90
2023-04-15T03:53:14.866Z,9.90
2023-04-15T03:55:42.525Z,9.90
2023-04-15T03:58:13.049Z,9.90
2023-04-15T04:00:41.734Z,9.90
2023-04-15T04:03:09.643Z,9.90
2023-04-15T04:05:39.121Z,9.90
2023-04-15T04:08:07.266Z,9.90
2023-04-15T04:10:34.945Z,9.90
2023-04-15T04:13:02.660Z,10.00
2023-04-15T04:15:30.436Z,10.00
2023-04-15T04:17:58.306Z,10.10
2023-04-15T04:20:26.266Z,10.10
2023-04-15T04:22:54.059Z,10.20
2023-04-15T04:25:22.174Z,10.00
2023-04-15T04:27:50.110Z,10.10
2023-04-15T04:30:17.950Z,10.00
2023-04-15T04:32:46.062Z,10.00
2023-04-15T04:35:13.960Z,10.10
2023-04-15T04:37:42.088Z,10.10
2023-04-15T04:40:10.794Z,10.00
2023-04-15T04:42:40.065Z,10.00
2023-04-15T04:45:08.847Z,10.00
2023-04-15T04:47:36.876Z,10.00
2023-04-15T04:50:04.943Z,10.10
2023-04-15T04:52:32.831Z,9.90
2023-04-15T04:55:00.461Z,9.90
2023-04-15T04:57:28.146Z,9.90
2023-04-15T04:59:56.153Z,9.90
2023-04-15T05:02:23.944Z,9.70
2023-04-15T05:04:54.561Z,9.60
2023-04-15T05:07:22.390Z,9.50
2023-04-15T05:09:50.171Z,9.60
2023-04-15T05:12:18.443Z,9.70
2023-04-15T05:14:46.928Z,9.70
2023-04-15T05:17:14.790Z,9.80
2023-04-15T05:19:42.607Z,9.90
2023-04-15T05:22:10.593Z,9.90
2023-04-15T05:24:38.206Z,10.00
2023-04-15T05:27:06.182Z,10.10
2023-04-15T05:29:33.925Z,10.20
2023-04-15T05:32:01.843Z,10.30
2023-04-15T05:34:29.589Z,10.60
2023-04-15T05:36:57.413Z,10.60
2023-04-15T05:39:25.235Z,10.70
2023-04-15T05:41:53.506Z,10.70
2023-04-15T05:44:21.426Z,10.80
2023-04-15T05:46:49.110Z,10.80
2023-04-15T05:49:16.973Z,10.90
2023-04-15T05:51:44.753Z,11.00
2023-04-15T05:54:12.471Z,11.00
2023-04-15T05:56:40.400Z,11.00
2023-04-15T05:59:08.867Z,11.20
2023-04-15T06:01:36.824Z,11.20
2023-04-15T06:04:04.886Z,11.30
2023-04-15T06:06:32.820Z,11.40
2023-04-15T06:09:00.842Z,11.50
2023-04-15T06:11:28.852Z,11.50
2023-04-15T06:13:56.854Z,11.60
2023-04-15T06:16:24.790Z,11.70
2023-04-15T06:18:52.455Z,11.90
2023-04-15T06:21:20.540Z,11.90
2023-04-15T06:23:48.329Z,12.00
2023-04-15T06:26:16.152Z,12.20
2023-04-15T06:28:43.811Z,12.20
2023-04-15T06:31:11.562Z,12.20
2023-04-15T06:33:39.966Z,12.30
2023-04-15T06:36:08.002Z,12.40
2023-04-15T06:38:35.784Z,12.50
2023-04-15T06:41:04.657Z,12.60
2023-04-15T06:43:33.313Z,12.60
2023-04-15T06:46:01.307Z,12.70
2023-04-15T06:48:29.262Z,12.80
2023-04-15T06:50:58.673Z,12.80
2023-04-15T06:53:28.410Z,12.80
2023-04-15T06:55:56.319Z,12.90
2023-04-15T06:58:24.734Z,12.90
2023-04-15T07:00:55.796Z,13.00
2023-04-15T07:03:23.716Z,13.10
2023-04-15T07:05:51.407Z,13.30
2023-04-15T07:08:20.021Z,13.40
2023-04-15T07:10:47.891Z,13.50
2023-04-15T07:13:15.909Z,13.50
2023-04-15T07:15:43.653Z,13.50
2023-04-15T07:18:11.394Z,13.50
2023-04-15T07:20:39.480Z,13.60
2023-04-15T07:23:07.338Z,13.70
2023-04-15T07:25:35.268Z,13.80
2023-04-15T07:28:03.717Z,13.90
2023-04-15T07:30:31.644Z,14.00
2023-04-15T07:32:59.765Z,14.00
2023-04-15T07:35:27.680Z,14.10
2023-04-15T07:37:55.727Z,14.10
2023-04-15T07:40:24.337Z,14.10
2023-04-15T07:42:52.584Z,14.10
2023-04-15T07:45:21.705Z,14.10
2023-04-15T07:47:51.010Z,14.10
2023-04-15T07:50:26.000Z,14.10
2023-04-15T07:53:03.681Z,14.20
2023-04-15T07:55:39.033Z,14.20
2023-04-15T07:58:09.117Z,14.20
2023-04-15T08:00:38.761Z,14.30
2023-04-15T08:03:07.304Z,14.30
2023-04-15T08:05:36.169Z,14.50
2023-04-15T08:08:04.195Z,14.50
2023-04-15T08:10:32.532Z,14.50
2023-04-15T08:13:00.331Z,14.60
2023-04-15T08:15:28.727Z,14.70
2023-04-15T08:17:57.024Z,14.70
2023-04-15T08:20:24.871Z,14.80
2023-04-15T08:22:53.860Z,14.90
2023-04-15T08:25:21.759Z,14.90
2023-04-15T08:27:49.645Z,15.00
2023-04-15T08:30:17.548Z,15.00
2023-04-15T08:32:48.649Z,15.00
2023-04-15T08:35:16.699Z,15.00
2023-04-15T08:37:44.427Z,15.20
2023-04-15T08:40:12.984Z,15.30
2023-04-15T08:42:47.771Z,15.40
2023-04-15T08:45:15.833Z,15.40
2023-04-15T08:47:45.942Z,15.40
2023-04-15T08:50:16.230Z,15.50
2023-04-15T08:52:44.208Z,15.50
2023-04-15T08:55:14.040Z,15.40
2023-04-15T08:57:41.849Z,15.60
2023-04-15T09:00:10.536Z,15.60
2023-04-15T09:02:38.768Z,15.70
2023-04-15T09:05:08.025Z,15.70
2023-04-15T09:07:36.765Z,15.70
2023-04-15T09:10:05.475Z,15.70
2023-04-15T09:12:36.754Z,15.70
2023-04-15T09:15:04.953Z,15.70
2023-04-15T09:17:34.826Z,15.70
2023-04-15T09:20:15.339Z,15.80
2023-04-15T09:22:45.753Z,16.00
2023-04-15T09:25:22.622Z,16.10
2023-04-15T09:27:59.301Z,16.10
2023-04-15T09:30:28.951Z,16.20
2023-04-15T09:32:59.023Z,16.20
2023-04-15T09:35:28.012Z,16.40
2023-04-15T09:38:07.636Z,16.40
2023-04-15T09:40:41.251Z,16.40
2023-04-15T09:43:13.197Z,16.30
2023-04-15T09:45:48.723Z,16.30
2023-04-15T09:48:17.956Z,16.40
2023-04-15T09:50:45.762Z,16.50
2023-04-15T09:53:20.368Z,16.40
2023-04-15T09:55:54.763Z,16.60
2023-04-15T09:58:24.431Z,16.70
2023-04-15T10:00:54.385Z,16.80
2023-04-15T10:03:27.990Z,16.90
2023-04-15T10:05:57.671Z,17.00
2023-04-15T10:08:28.771Z,17.00
2023-04-15T10:10:56.876Z,17.00
2023-04-15T10:13:26.665Z,17.00
2023-04-15T10:16:12.110Z,17.10
2023-04-15T10:18:44.867Z,17.20
2023-04-15T10:21:18.978Z,17.30
2023-04-15T10:23:47.473Z,17.40
2023-04-15T10:26:17.479Z,17.40
2023-04-15T10:28:47.531Z,17.50
2023-04-15T10:31:15.877Z,17.60
2023-04-15T10:33:46.270Z,17.70
2023-04-15T10:36:15.718Z,17.70
2023-04-15T10:38:45.842Z,17.70
2023-04-15T10:41:14.335Z,17.80
2023-04-15T10:43:57.986Z,17.90
2023-04-15T10:46:45.934Z,17.90
2023-04-15T10:49:16.505Z,18.00
2023-04-15T10:51:47.357Z,18.20
2023-04-15T10:54:16.186Z,18.20
2023-04-15T10:56:45.621Z,18.40
2023-04-15T10:59:13.684Z,18.40
2023-04-15T11:01:55.243Z,18.60
2023-04-15T11:04:58.096Z,18.50
2023-04-15T11:07:39.240Z,18.40
2023-04-15T11:10:21.828Z,18.40
2023-04-15T11:13:02.321Z,18.30
2023-04-15T11:15:32.738Z,18.50
2023-04-15T11:18:10.399Z,18.70
2023-04-15T11:20:42.879Z,18.80
2023-04-15T11:23:15.095Z,18.90
2023-04-15T11:25:44.325Z,19.00
2023-04-15T11:28:13.214Z,19.00
2023-04-15T11:30:42.586Z,19.10
2023-04-15T11:33:14.953Z,19.40
2023-04-15T11:35:43.134Z,19.50
2023-04-15T11:38:14.043Z,19.50
2023-04-15T11:40:45.247Z,19.70
2023-04-15T11:43:22.900Z,19.90
2023-04-15T11:46:01.861Z,19.80
2023-04-15T11:48:35.455Z,19.90
2023-04-15T11:51:05.316Z,19.90
2023-04-15T11:53:49.586Z,19.80
2023-04-15T11:56:21.200Z,19.80
2023-04-15T11:58:52.925Z,19.90
2023-04-15T12:01:20.723Z,20.00
2023-04-15T12:03:50.396Z,20.40
2023-04-15T12:06:23.732Z,20.60
2023-04-15T12:09:02.143Z,20.70
2023-04-15T12:11:50.100Z,20.80
2023-04-15T12:14:31.730Z,21.00
2023-04-15T12:17:05.078Z,21.00
2023-04-15T12:19:37.677Z,21.00
2023-04-15T12:22:09.680Z,21.40
2023-04-15T12:24:38.706Z,21.50
2023-04-15T12:27:13.498Z,21.50
2023-04-15T12:29:43.351Z,21.50
2023-04-15T12:32:13.258Z,21.50
2023-04-15T12:34:43.736Z,21.30
2023-04-15T12:37:16.248Z,21.30
2023-04-15T12:39:46.033Z,21.50
2023-04-15T12:42:14.932Z,21.30
2023-04-15T12:44:43.251Z,21.30
2023-04-15T12:47:12.425Z,21.30
2023-04-15T12:49:41.312Z,21.40
2023-04-15T12:52:09.688Z,21.80
2023-04-15T12:54:37.521Z,22.00
2023-04-15T12:57:07.303Z,22.50
2023-04-15T12:59:36.934Z,22.60
2023-04-15T13:02:05.502Z,22.70
2023-04-15T13:04:33.500Z,22.40
2023-04-15T13:07:02.368Z,22.50
2023-04-15T13:09:30.556Z,22.00
2023-04-15T13:11:58.474Z,21.90
2023-04-15T13:14:27.348Z,21.80
2023-04-15T13:16:55.368Z,21.40
2023-04-15T13:19:23.376Z,21.60
2023-04-15T13:21:51.239Z,22.20
2023-04-15T13:24:19.004Z,21.60
2023-04-15T13:26:48.523Z,21.40
2023-04-15T13:29:17.378Z,21.00
2023-04-15T13:31:45.142Z,21.00
2023-04-15T13:34:12.916Z,20.50
2023-04-15T13:36:40.634Z,20.50
2023-04-15T13:39:08.368Z,20.30
2023-04-15T13:41:37.674Z,20.30
2023-04-15T13:44:06.610Z,20.20
2023-04-15T13:46:34.671Z,20.00
2023-04-15T13:49:02.461Z,19.60
2023-04-15T13:51:30.251Z,19.50
2023-04-15T13:53:58.279Z,19.60
2023-04-15T13:56:26.438Z,19.70
2023-04-15T13:58:59.338Z,19.80
2023-04-15T14:01:27.525Z,19.80
2023-04-15T14:03:55.928Z,19.80
2023-04-15T14:06:23.820Z,19.90
2023-04-15T14:08:51.597Z,19.80
2023-04-15T14:11:19.333Z,19.80
2023-04-15T14:13:47.109Z,19.80
2023-04-15T14:16:15.039Z,19.90
2023-04-15T14:18:44.731Z,20.00
2023-04-15T14:21:12.565Z,20.10
2023-04-15T14:23:40.277Z,20.10
2023-04-15T14:26:08.596Z,19.70
2023-04-15T14:28:38.541Z,19.80
2023-04-15T14:31:06.856Z,19.80
2023-04-15T14:33:34.617Z,19.90
2023-04-15T14:36:02.879Z,19.90
2023-04-15T14:38:31.736Z,19.80
2023-04-15T14:40:59.549Z,19.70
2023-04-15T14:43:27.314Z,19.50
2023-04-15T14:45:55.858Z,19.40
2023-04-15T14:48:23.723Z,19.50
2023-04-15T14:50:51.885Z,19.40
2023-04-15T14:53:20.534Z,19.20
2023-04-15T14:55:48.412Z,19.30
2023-04-15T14:58:16.802Z,19.20
2023-04-15T15:00:44.966Z,19.20
2023-04-15T15:03:13.993Z,19.20
2023-04-15T15:05:45.174Z,19.20
2023-04-15T15:08:14.390Z,19.30
2023-04-15T15:10:48.439Z,19.30
2023-04-15T15:13:19.384Z,19.30
2023-04-15T15:15:49.868Z,19.50
2023-04-15T15:18:19.610Z,19.50
2023-04-15T15:20:48.468Z,19.50
2023-04-15T15:23:16.903Z,19.30
2023-04-15T15:25:46.560Z,19.10
2023-04-15T15:28:14.855Z,19.10
2023-04-15T15:30:43.149Z,19.10
2023-04-15T15:33:11.675Z,18.80
2023-04-15T15:35:39.889Z,18.70
2023-04-15T15:38:07.932Z,18.80
2023-04-15T15:40:35.735Z,18.80
2023-04-15T15:43:04.241Z,18.80
2023-04-15T15:45:31.992Z,18.80
2023-04-15T15:48:00.339Z,18.70
2023-04-15T15:50:28.331Z,18.60
2023-04-15T15:52:56.318Z,18.40
2023-04-15T15:55:25.921Z,18.30
2023-04-15T15:57:54.634Z,18.20
2023-04-15T16:00:23.422Z,18.10
2023-04-15T16:05:22.085Z,18.20
2023-04-15T16:07:49.834Z,18.10
2023-04-15T16:10:17.655Z,18.20
2023-04-15T16:12:45.356Z,18.20
2023-04-15T16:15:13.391Z,18.10
2023-04-15T16:17:41.414Z,18.00
2023-04-15T16:20:09.624Z,17.90
2023-04-15T16:22:37.570Z,17.90
2023-04-15T16:25:05.697Z,17.90
2023-04-15T16:27:33.836Z,17.80
2023-04-15T16:30:03.550Z,17.90
2023-04-15T16:32:31.650Z,17.80
2023-04-15T16:34:59.609Z,17.80
2023-04-15T16:37:27.442Z,17.80
2023-04-15T16:39:55.733Z,17.70
2023-04-15T16:42:23.602Z,17.70
2023-04-15T16:44:52.833Z,17.60
2023-04-15T16:47:20.951Z,17.50
2023-04-15T16:49:48.778Z,17.50
2023-04-15T16:52:16.609Z,17.40
2023-04-15T16:54:44.283Z,17.50
2023-04-15T16:57:12.397Z,17.40
2023-04-15T16:59:41.622Z,17.30
2023-04-15T17:02:12.680Z,17.20
2023-04-15T17:04:42.244Z,17.10
2023-04-15T17:07:10.896Z,16.90
2023-04-15T17:09:40.288Z,16.90
2023-04-15T17:12:08.338Z,16.90
2023-04-15T17:14:36.263Z,16.90
2023-04-15T17:17:04.062Z,16.70
2023-04-15T17:19:31.901Z,16.60
2023-04-15T17:22:00.132Z,16.50
2023-04-15T17:24:27.874Z,16.40
2023-04-15T17:26:56.874Z,16.40
2023-04-15T17:29:25.153Z,16.40
2023-04-15T17:31:52.920Z,16.30
2023-04-15T17:34:21.455Z,16.30
2023-04-15T17:36:51.543Z,16.20
2023-04-15T17:39:19.378Z,16.20
2023-04-15T17:41:47.189Z,16.20
2023-04-15T17:44:14.916Z,16.30
2023-04-15T17:46:42.756Z,16.30
2023-04-15T17:49:10.574Z,16.20
2023-04-15T17:51:38.242Z,16.20
2023-04-15T17:54:08.627Z,16.20
2023-04-15T17:56:36.735Z,16.10
2023-04-15T17:59:04.621Z,16.00
2023-04-15T18:01:32.379Z,16.10
2023-04-15T18:04:00.434Z,15.90
2023-04-15T18:06:28.623Z,15.90
2023-04-15T18:08:56.412Z,15.90
2023-04-15T18:11:24.189Z,15.70
2023-04-15T18:13:52.207Z,15.70
2023-04-15T18:16:20.197Z,15.80
2023-04-15T18:18:48.093Z,15.70
2023-04-15T18:21:16.629Z,15.60
2023-04-15T18:23:44.710Z,15.70
2023-04-15T18:26:13.351Z,15.70
2023-04-15T18:28:41.490Z,15.50
2023-04-15T18:31:10.588Z,15.40
2023-04-15T18:33:39.649Z,15.40
2023-04-15T18:36:07.666Z,15.30
2023-04-15T18:38:35.577Z,15.20
2023-04-15T18:41:06.451Z,15.20
2023-04-15T18:43:35.642Z,15.10
2023-04-15T18:46:08.524Z,15.10
2023-04-15T18:48:36.572Z,15.00
2023-04-15T18:51:04.488Z,15.00
2023-04-15T18:53:32.495Z,15.00
2023-04-15T18:56:02.998Z,14.90
2023-04-15T18:59:11.612Z,14.90
2023-04-15T19:01:18.648Z,14.80
2023-04-15T19:03:46.514Z,14.80
2023-04-15T19:06:14.223Z,14.70
2023-04-15T19:08:46.326Z,14.60
2023-04-15T19:11:14.681Z,14.60
2023-04-15T19:13:42.572Z,14.50
2023-04-15T19:16:10.552Z,14.50
2023-04-15T19:18:38.592Z,14.50
2023-04-15T19:21:06.505Z,14.50
2023-04-15T19:23:34.350Z,14.40
2023-04-15T19:26:02.841Z,14.40
2023-04-15T19:28:31.176Z,14.40
2023-04-15T19:30:58.955Z,14.40
2023-04-15T19:33:31.645Z,14.30
2023-04-15T19:36:04.797Z,14.30
2023-04-15T19:38:33.524Z,14.30
2023-04-15T19:41:01.279Z,14.30
2023-04-15T19:43:29.121Z,14.20
2023-04-15T19:45:57.024Z,14.30
2023-04-15T19:48:25.520Z,14.20
2023-04-15T19:50:53.370Z,14.20
2023-04-15T19:53:21.091Z,14.20
2023-04-15T19:55:49.058Z,14.20
2023-04-15T19:58:17.490Z,14.10
2023-04-15T20:00:45.562Z,14.20
2023-04-15T20:03:13.574Z,14.10
2023-04-15T20:05:41.657Z,14.20
2023-04-15T20:08:09.663Z,14.20
2023-04-15T20:10:37.676Z,14.30
2023-04-15T20:13:05.449Z,14.20
2023-04-15T20:15:33.317Z,14.10
2023-04-15T20:18:01.315Z,14.10
2023-04-15T20:20:29.109Z,14.10
2023-04-15T20:22:56.922Z,14.10
2023-04-15T20:25:24.751Z,13.90
2023-04-15T20:27:52.590Z,13.90
2023-04-15T20:30:20.828Z,13.90
2023-04-15T20:32:48.604Z,13.80
2023-04-15T20:35:16.542Z,13.80
2023-04-15T20:37:45.192Z,13.70
2023-04-15T20:40:14.333Z,13.70
2023-04-15T20:42:43.882Z,13.60
2023-04-15T20:45:11.982Z,13.60
2023-04-15T20:47:39.743Z,13.50
2023-04-15T20:50:08.190Z,13.50
2023-04-15T20:52:35.990Z,13.60
2023-04-15T20:55:04.033Z,13.60
2023-04-15T20:57:31.808Z,13.60
2023-04-15T21:00:00.222Z,13.70
2023-04-15T21:02:28.110Z,13.70
2023-04-15T21:04:56.060Z,13.70
2023-04-15T21:07:24.029Z,13.80
2023-04-15T21:09:52.020Z,13.70
2023-04-15T21:12:19.763Z,13.70
2023-04-15T21:14:47.592Z,13.70
2023-04-15T21:17:15.541Z,13.70
2023-04-15T21:19:43.319Z,13.70
2023-04-15T21:22:11.530Z,13.70
2023-04-15T21:24:39.908Z,13.60
2023-04-15T21:27:08.202Z,13.60
2023-04-15T21:29:36.488Z,13.60
2023-04-15T21:32:04.697Z,13.40
2023-04-15T21:34:33.107Z,13.50
2023-04-15T21:37:01.488Z,13.40
2023-04-15T21:39:29.878Z,13.40
2023-04-15T21:41:58.352Z,13.40
2023-04-15T21:44:26.733Z,13.40
2023-04-15T21:46:55.016Z,13.40
2023-04-15T21:49:25.386Z,13.40
2023-04-15T21:51:53.897Z,13.50
2023-04-15T21:54:22.307Z,13.50
2023-04-15T21:56:51.163Z,13.40
2023-04-15T21:59:19.335Z,13.30
2023-04-15T22:01:47.849Z,13.10
2023-04-15T22:04:16.252Z,13.10
2023-04-15T22:06:44.683Z,13.00
2023-04-15T22:09:14.269Z,12.90
2023-04-15T22:11:42.827Z,12.90
2023-04-15T22:14:10.709Z,12.80
2023-04-15T22:16:38.576Z,12.90
2023-04-15T22:19:06.668Z,12.80
2023-04-15T22:21:34.555Z,12.70
2023-04-15T22:24:39.006Z,12.60
2023-04-15T22:26:50.142Z,12.60
2023-04-15T22:29:17.855Z,12.60
2023-04-15T22:31:45.975Z,12.50
2023-04-15T22:34:20.764Z,12.30
2023-04-15T22:36:49.265Z,12.30
2023-04-15T22:39:17.267Z,12.20
2023-04-15T22:41:46.020Z,12.30
2023-04-15T22:44:13.822Z,12.40
2023-04-15T22:46:41.626Z,12.40
2023-04-15T22:49:10.552Z,12.50
2023-04-15T22:51:38.457Z,12.60
2023-04-15T22:54:06.273Z,12.70
2023-04-15T22:56:34.020Z,12.70
2023-04-15T22:59:01.804Z,12.70
2023-04-15T23:01:29.639Z,12.60
2023-04-15T23:04:07.395Z,12.60
2023-04-15T23:06:37.814Z,12.60
2023-04-15T23:09:05.707Z,12.40
2023-04-15T23:11:33.419Z,12.40
2023-04-15T23:14:01.110Z,12.30
2023-04-15T23:16:28.901Z,12.30
2023-04-15T23:18:56.910Z,12.10
2023-04-15T23:21:26.150Z,12.20
2023-04-15T23:23:54.387Z,12.20
2023-04-15T23:26:22.188Z,12.30
2023-04-15T23:28:50.630Z,12.30
2023-04-15T23:31:18.942Z,12.30
2023-04-15T23:33:46.876Z,12.40
2023-04-15T23:36:14.562Z,12.40
2023-04-15T23:38:42.518Z,12.50
2023-04-15T23:41:12.147Z,12.50
2023-04-15T23:43:39.955Z,12.50
2023-04-15T23:46:08.664Z,12.60
2023-04-15T23:48:36.522Z,12.60
2023-04-15T23:51:05.208Z,12.60
2023-04-15T23:53:33.186Z,12.60
2023-04-15T23:56:01.650Z,12.60
2023-04-15T23:58:29.361Z,12.50
